createdAt,value
2022-09-25T00:00:44.200Z,0.00
2022-09-25T00:01:44.204Z,0.00
2022-09-25T00:02:44.264Z,0.00
2022-09-25T00:03:44.145Z,0.00
2022-09-25T00:04:44.119Z,0.00
2022-09-25T00:05:44.137Z,0.00
2022-09-25T00:06:44.094Z,0.00
2022-09-25T00:07:44.079Z,0.00
2022-09-25T00:08:44.056Z,0.00
2022-09-25T00:09:44.048Z,0.00
2022-09-25T00:10:44.070Z,0.00
2022-09-25T00:11:44.040Z,0.00
2022-09-25T00:12:44.032Z,0.00
2022-09-25T00:13:44.012Z,0.00
2022-09-25T00:14:44.015Z,0.00
2022-09-25T00:15:44.036Z,0.00
2022-09-25T00:16:44.090Z,0.00
2022-09-25T00:17:43.976Z,0.00
2022-09-25T00:18:43.982Z,0.00
2022-09-25T00:19:43.960Z,0.00
2022-09-25T00:20:43.961Z,0.00
2022-09-25T00:21:43.935Z,0.00
2022-09-25T00:22:43.912Z,0.00
2022-09-25T00:23:43.904Z,0.00
2022-09-25T00:24:43.894Z,0.00
2022-09-25T00:25:43.921Z,0.00
2022-09-25T00:26:43.874Z,0.00
2022-09-25T00:27:43.860Z,0.00
2022-09-25T00:28:43.855Z,0.00
2022-09-25T00:29:43.849Z,0.00
2022-09-25T00:30:43.899Z,0.00
2022-09-25T00:31:43.820Z,0.00
2022-09-25T00:32:43.811Z,0.00
2022-09-25T00:33:43.808Z,0.00
2022-09-25T00:34:43.781Z,0.00
2022-09-25T00:35:43.801Z,0.00
2022-09-25T00:36:43.756Z,0.00
2022-09-25T00:37:43.760Z,0.00
2022-09-25T00:38:43.723Z,0.00
2022-09-25T00:39:43.711Z,0.00
2022-09-25T00:40:43.825Z,0.00
2022-09-25T00:41:43.692Z,0.00
2022-09-25T00:42:43.703Z,0.00
2022-09-25T00:43:43.682Z,0.00
2022-09-25T00:44:43.677Z,0.00
2022-09-25T00:45:43.757Z,0.00
2022-09-25T00:46:43.657Z,0.00
2022-09-25T00:47:43.636Z,0.00
2022-09-25T00:48:43.620Z,0.00
2022-09-25T00:49:43.617Z,0.00
2022-09-25T00:50:43.645Z,0.00
2022-09-25T00:51:43.599Z,0.00
2022-09-25T00:52:43.571Z,0.00
2022-09-25T00:53:43.575Z,0.00
2022-09-25T00:54:43.555Z,0.00
2022-09-25T00:55:43.580Z,0.00
2022-09-25T00:56:43.536Z,0.00
2022-09-25T00:57:43.527Z,0.00
2022-09-25T00:58:43.515Z,0.00
2022-09-25T00:59:43.506Z,0.00
2022-09-25T01:00:43.523Z,0.00
2022-09-25T01:01:43.540Z,0.00
2022-09-25T01:02:43.512Z,0.00
2022-09-25T01:03:43.486Z,0.00
2022-09-25T01:04:43.451Z,0.00
2022-09-25T01:05:43.475Z,0.00
2022-09-25T01:06:43.418Z,0.00
2022-09-25T01:07:43.416Z,0.00
2022-09-25T01:08:43.396Z,0.00
2022-09-25T01:09:43.386Z,0.00
2022-09-25T01:10:43.389Z,0.00
2022-09-25T01:11:43.342Z,0.00
2022-09-25T01:12:43.340Z,0.00
2022-09-25T01:13:43.322Z,0.00
2022-09-25T01:14:43.337Z,0.00
2022-09-25T01:15:43.360Z,0.00
2022-09-25T01:16:43.350Z,0.00
2022-09-25T01:17:43.303Z,0.00
2022-09-25T01:18:43.279Z,0.00
2022-09-25T01:19:43.280Z,0.00
2022-09-25T01:20:43.305Z,0.00
2022-09-25T01:21:43.258Z,0.00
2022-09-25T01:22:43.242Z,0.00
2022-09-25T01:23:43.222Z,0.00
2022-09-25T01:24:43.211Z,0.00
2022-09-25T01:25:43.248Z,0.00
2022-09-25T01:26:43.196Z,0.00
2022-09-25T01:27:43.181Z,0.00
2022-09-25T01:28:43.176Z,0.00
2022-09-25T01:29:43.153Z,0.00
2022-09-25T01:30:43.255Z,0.00
2022-09-25T01:31:43.162Z,0.00
2022-09-25T01:32:43.140Z,0.00
2022-09-25T01:33:43.126Z,0.00
2022-09-25T01:34:43.093Z,0.00
2022-09-25T01:35:43.145Z,0.00
2022-09-25T01:36:43.115Z,0.00
2022-09-25T01:37:43.053Z,0.00
2022-09-25T01:38:43.034Z,0.00
2022-09-25T01:39:43.035Z,0.00
2022-09-25T01:40:43.161Z,0.00
2022-09-25T01:41:43.052Z,0.00
2022-09-25T01:42:42.991Z,0.00
2022-09-25T01:43:42.981Z,0.00
2022-09-25T01:44:42.969Z,0.00
2022-09-25T01:45:43.020Z,0.00
2022-09-25T01:46:42.961Z,0.00
2022-09-25T01:47:42.961Z,0.00
2022-09-25T01:48:42.932Z,0.00
2022-09-25T01:49:42.915Z,0.00
2022-09-25T01:50:42.933Z,0.00
2022-09-25T01:51:42.894Z,0.00
2022-09-25T01:52:42.874Z,0.00
2022-09-25T01:53:45.825Z,0.00
2022-09-25T01:54:43.851Z,0.00
2022-09-25T01:55:42.912Z,0.00
2022-09-25T01:56:42.827Z,0.00
2022-09-25T01:57:42.844Z,0.00
2022-09-25T01:58:42.816Z,0.00
2022-09-25T01:59:42.820Z,0.00
2022-09-25T02:00:42.854Z,0.00
2022-09-25T02:01:42.961Z,0.00
2022-09-25T02:02:42.947Z,0.00
2022-09-25T02:03:42.760Z,0.00
2022-09-25T02:04:42.764Z,0.00
2022-09-25T02:05:42.746Z,0.00
2022-09-25T02:06:42.764Z,0.00
2022-09-25T02:07:42.720Z,0.00
2022-09-25T02:08:42.696Z,0.00
2022-09-25T02:09:42.701Z,0.00
2022-09-25T02:10:42.726Z,0.00
2022-09-25T02:11:42.669Z,0.00
2022-09-25T02:12:42.668Z,0.00
2022-09-25T02:13:42.636Z,0.00
2022-09-25T02:14:42.627Z,0.00
2022-09-25T02:15:42.639Z,0.00
2022-09-25T02:16:42.652Z,0.00
2022-09-25T02:17:42.601Z,0.00
2022-09-25T02:18:42.607Z,0.00
2022-09-25T02:19:42.557Z,0.00
2022-09-25T02:20:42.616Z,0.00
2022-09-25T02:21:42.561Z,0.00
2022-09-25T02:22:42.544Z,0.00
2022-09-25T02:23:42.545Z,0.00
2022-09-25T02:24:42.522Z,0.00
2022-09-25T02:25:42.548Z,0.00
2022-09-25T02:26:42.539Z,0.00
2022-09-25T02:27:42.467Z,0.00
2022-09-25T02:28:42.474Z,0.00
2022-09-25T02:29:42.451Z,0.00
2022-09-25T02:30:42.528Z,0.00
2022-09-25T02:31:42.434Z,0.00
2022-09-25T02:32:42.423Z,0.00
2022-09-25T02:33:42.412Z,0.00
2022-09-25T02:34:42.409Z,0.00
2022-09-25T02:35:42.442Z,0.00
2022-09-25T02:36:42.384Z,0.00
2022-09-25T02:37:42.376Z,0.00
2022-09-25T02:38:42.369Z,0.00
2022-09-25T02:39:42.335Z,0.00
2022-09-25T02:40:42.444Z,0.00
2022-09-25T02:41:42.342Z,0.00
2022-09-25T02:42:42.329Z,0.00
2022-09-25T02:43:42.327Z,0.00
2022-09-25T02:44:42.302Z,0.00
2022-09-25T02:45:42.380Z,0.00
2022-09-25T02:46:42.261Z,0.00
2022-09-25T02:47:42.243Z,0.00
2022-09-25T02:48:42.274Z,0.00
2022-09-25T02:49:42.235Z,0.00
2022-09-25T02:50:42.279Z,0.00
2022-09-25T02:51:42.231Z,0.00
2022-09-25T02:52:42.237Z,0.00
2022-09-25T02:53:42.192Z,0.00
2022-09-25T02:54:42.201Z,0.00
2022-09-25T02:55:42.222Z,0.00
2022-09-25T02:56:42.164Z,0.00
2022-09-25T02:57:42.149Z,0.00
2022-09-25T02:58:42.134Z,0.00
2022-09-25T02:59:42.132Z,0.00
2022-09-25T03:00:42.169Z,0.00
2022-09-25T03:01:42.158Z,0.00
2022-09-25T03:02:42.160Z,0.00
2022-09-25T03:03:42.067Z,0.00
2022-09-25T03:04:42.082Z,0.00
2022-09-25T03:05:42.108Z,0.00
2022-09-25T03:06:42.065Z,0.00
2022-09-25T03:07:42.042Z,0.00
2022-09-25T03:08:42.048Z,0.00
2022-09-25T03:09:42.015Z,0.00
2022-09-25T03:10:42.045Z,0.00
2022-09-25T03:11:42.017Z,0.00
2022-09-25T03:12:41.987Z,0.00
2022-09-25T03:13:41.977Z,0.00
2022-09-25T03:14:41.969Z,0.00
2022-09-25T03:15:41.982Z,0.00
2022-09-25T03:16:41.984Z,0.00
2022-09-25T03:17:41.906Z,0.00
2022-09-25T03:18:41.910Z,0.00
2022-09-25T03:19:41.880Z,0.00
2022-09-25T03:20:42.066Z,0.00
2022-09-25T03:21:41.874Z,0.00
2022-09-25T03:22:41.868Z,0.00
2022-09-25T03:23:41.850Z,0.00
2022-09-25T03:24:41.843Z,0.00
2022-09-25T03:25:44.768Z,0.00
2022-09-25T03:26:42.823Z,0.00
2022-09-25T03:27:41.810Z,0.00
2022-09-25T03:28:41.806Z,0.00
2022-09-25T03:29:41.774Z,0.00
2022-09-25T03:30:41.863Z,0.00
2022-09-25T03:31:41.755Z,0.00
2022-09-25T03:32:41.760Z,0.00
2022-09-25T03:33:41.734Z,0.00
2022-09-25T03:34:41.729Z,0.00
2022-09-25T03:35:41.759Z,0.00
2022-09-25T03:36:41.706Z,0.00
2022-09-25T03:37:41.698Z,0.00
2022-09-25T03:38:41.677Z,0.00
2022-09-25T03:39:41.664Z,0.00
2022-09-25T03:40:41.728Z,0.00
2022-09-25T03:41:41.647Z,0.00
2022-09-25T03:42:41.640Z,0.00
2022-09-25T03:43:41.616Z,0.00
2022-09-25T03:44:41.615Z,0.00
2022-09-25T03:45:41.664Z,0.00
2022-09-25T03:46:41.588Z,0.00
2022-09-25T03:47:41.580Z,0.00
2022-09-25T03:48:41.569Z,0.00
2022-09-25T03:49:41.548Z,0.00
2022-09-25T03:50:41.572Z,0.00
2022-09-25T03:51:41.515Z,0.00
2022-09-25T03:52:41.515Z,0.00
2022-09-25T03:53:41.490Z,0.00
2022-09-25T03:54:41.491Z,0.00
2022-09-25T03:55:41.526Z,0.00
2022-09-25T03:56:41.468Z,0.00
2022-09-25T03:57:41.495Z,0.00
2022-09-25T03:58:41.462Z,0.00
2022-09-25T03:59:41.436Z,0.00
2022-09-25T04:00:41.478Z,0.00
2022-09-25T04:01:41.508Z,0.00
2022-09-25T04:02:41.469Z,0.00
2022-09-25T04:03:41.399Z,0.00
2022-09-25T04:04:41.387Z,0.00
2022-09-25T04:05:41.410Z,0.00
2022-09-25T04:06:41.367Z,0.00
2022-09-25T04:07:41.357Z,0.00
2022-09-25T04:08:41.339Z,0.00
2022-09-25T04:09:41.330Z,0.00
2022-09-25T04:10:41.350Z,0.00
2022-09-25T04:11:41.309Z,0.00
2022-09-25T04:12:41.307Z,0.00
2022-09-25T04:13:41.281Z,0.00
2022-09-25T04:14:41.271Z,0.00
2022-09-25T04:15:41.299Z,0.00
2022-09-25T04:16:41.299Z,0.00
2022-09-25T04:17:41.235Z,0.00
2022-09-25T04:18:41.228Z,0.00
2022-09-25T04:19:41.224Z,4.00
2022-09-25T04:20:41.248Z,4.00
2022-09-25T04:21:41.189Z,4.00
2022-09-25T04:22:41.191Z,4.00
2022-09-25T04:23:41.176Z,4.00
2022-09-25T04:24:41.150Z,4.00
2022-09-25T04:25:41.183Z,8.00
2022-09-25T04:26:41.138Z,4.00
2022-09-25T04:27:41.124Z,8.00
2022-09-25T04:28:41.124Z,8.00
2022-09-25T04:29:41.110Z,12.00
2022-09-25T04:30:41.137Z,16.00
2022-09-25T04:31:41.124Z,16.00
2022-09-25T04:32:41.081Z,20.00
2022-09-25T04:33:41.056Z,24.00
2022-09-25T04:34:41.050Z,28.00
2022-09-25T04:35:41.077Z,36.00
2022-09-25T04:36:41.033Z,44.00
2022-09-25T04:37:41.013Z,48.00
2022-09-25T04:38:41.000Z,56.00
2022-09-25T04:39:40.993Z,68.00
2022-09-25T04:40:41.130Z,80.00
2022-09-25T04:41:40.955Z,88.00
2022-09-25T04:42:40.993Z,104.00
2022-09-25T04:43:40.947Z,116.00
2022-09-25T04:44:40.933Z,136.00
2022-09-25T04:45:40.958Z,156.00
2022-09-25T04:46:40.964Z,176.00
2022-09-25T04:47:40.907Z,200.00
2022-09-25T04:48:40.891Z,228.00
2022-09-25T04:49:40.876Z,252.00
2022-09-25T04:50:40.911Z,284.00
2022-09-25T04:51:40.856Z,312.00
2022-09-25T04:52:40.872Z,344.00
2022-09-25T04:53:40.836Z,384.00
2022-09-25T04:54:40.875Z,420.00
2022-09-25T04:55:40.815Z,456.00
2022-09-25T04:56:40.796Z,496.00
2022-09-25T04:57:57.772Z,540.00
2022-09-25T04:58:41.773Z,584.00
2022-09-25T04:59:40.758Z,632.00
2022-09-25T05:00:40.800Z,680.00
2022-09-25T05:01:40.907Z,728.00
2022-09-25T05:02:40.803Z,776.00
2022-09-25T05:03:40.885Z,828.00
2022-09-25T05:04:40.716Z,884.00
2022-09-25T05:05:40.736Z,940.00
2022-09-25T05:06:40.691Z,996.00
2022-09-25T05:07:40.679Z,1064.00
2022-09-25T05:08:40.676Z,1124.00
2022-09-25T05:09:40.655Z,1196.00
2022-09-25T05:10:40.679Z,1264.00
2022-09-25T05:11:40.621Z,1344.00
2022-09-25T05:12:40.625Z,1428.00
2022-09-25T05:13:40.611Z,1520.00
2022-09-25T05:14:40.615Z,1628.00
2022-09-25T05:15:40.687Z,1748.00
2022-09-25T05:16:40.632Z,1872.00
2022-09-25T05:17:40.563Z,1996.00
2022-09-25T05:18:40.543Z,2136.00
2022-09-25T05:19:40.557Z,2272.00
2022-09-25T05:20:40.563Z,2420.00
2022-09-25T05:21:40.521Z,2556.00
2022-09-25T05:22:40.512Z,2692.00
2022-09-25T05:23:40.486Z,2804.00
2022-09-25T05:24:40.500Z,2896.00
2022-09-25T05:25:40.506Z,2988.00
2022-09-25T05:26:40.471Z,3064.00
2022-09-25T05:27:40.478Z,3128.00
2022-09-25T05:28:40.440Z,3220.00
2022-09-25T05:29:40.426Z,3284.00
2022-09-25T05:30:40.446Z,3360.00
2022-09-25T05:31:40.431Z,3448.00
2022-09-25T05:32:40.403Z,3512.00
2022-09-25T05:33:40.379Z,3588.00
2022-09-25T05:34:40.394Z,3620.00
2022-09-25T05:35:40.386Z,3656.00
2022-09-25T05:36:40.345Z,3680.00
2022-09-25T05:37:40.343Z,3700.00
2022-09-25T05:38:40.344Z,3768.00
2022-09-25T05:39:40.310Z,3832.00
2022-09-25T05:40:40.399Z,3912.00
2022-09-25T05:41:40.296Z,4044.00
2022-09-25T05:42:40.296Z,4168.00
2022-09-25T05:43:40.291Z,4316.00
2022-09-25T05:44:40.254Z,4432.00
2022-09-25T05:45:40.275Z,4588.00
2022-09-25T05:46:40.303Z,4716.00
2022-09-25T05:47:40.218Z,4820.00
2022-09-25T05:48:40.218Z,5004.00
2022-09-25T05:49:40.194Z,5048.00
2022-09-25T05:50:40.234Z,5124.00
2022-09-25T05:51:40.175Z,5152.00
2022-09-25T05:52:40.176Z,5212.00
2022-09-25T05:53:40.149Z,5228.00
2022-09-25T05:54:40.146Z,5240.00
2022-09-25T05:55:40.168Z,5264.00
2022-09-25T05:56:40.127Z,5316.00
2022-09-25T05:57:40.112Z,5316.00
2022-09-25T05:58:40.114Z,5308.00
2022-09-25T05:59:40.085Z,5300.00
2022-09-25T06:00:40.108Z,5240.00
2022-09-25T06:01:40.114Z,5204.00
2022-09-25T06:02:40.142Z,5136.00
2022-09-25T06:03:40.035Z,5080.00
2022-09-25T06:04:40.028Z,5020.00
2022-09-25T06:05:40.043Z,4972.00
2022-09-25T06:06:40.000Z,4944.00
2022-09-25T06:07:39.994Z,4932.00
2022-09-25T06:08:39.990Z,4932.00
2022-09-25T06:09:39.971Z,4940.00
2022-09-25T06:10:40.004Z,4968.00
2022-09-25T06:11:39.954Z,5012.00
2022-09-25T06:12:39.976Z,5056.00
2022-09-25T06:13:39.927Z,5132.00
2022-09-25T06:14:39.913Z,5188.00
2022-09-25T06:15:39.992Z,5248.00
2022-09-25T06:16:39.895Z,5304.00
2022-09-25T06:17:39.877Z,5360.00
2022-09-25T06:18:39.870Z,5424.00
2022-09-25T06:19:39.859Z,5484.00
2022-09-25T06:20:39.889Z,5500.00
2022-09-25T06:21:39.832Z,5536.00
2022-09-25T06:22:39.837Z,5548.00
2022-09-25T06:23:39.813Z,5596.00
2022-09-25T06:24:39.801Z,5668.00
2022-09-25T06:25:39.845Z,5744.00
2022-09-25T06:26:39.791Z,5856.00
2022-09-25T06:27:39.772Z,5984.00
2022-09-25T06:28:39.751Z,6124.00
2022-09-25T06:29:39.758Z,6264.00
2022-09-25T06:30:39.780Z,6392.00
2022-09-25T06:31:39.762Z,6492.00
2022-09-25T06:32:39.726Z,6564.00
2022-09-25T06:33:39.712Z,6656.00
2022-09-25T06:34:39.698Z,6712.00
2022-09-25T06:35:39.720Z,6816.00
2022-09-25T06:36:39.665Z,6952.00
2022-09-25T06:37:39.651Z,7024.00
2022-09-25T06:38:39.638Z,7124.00
2022-09-25T06:39:39.642Z,7188.00
2022-09-25T06:40:39.706Z,7244.00
2022-09-25T06:41:39.629Z,7272.00
2022-09-25T06:42:39.599Z,7348.00
2022-09-25T06:43:39.591Z,7428.00
2022-09-25T06:44:39.582Z,7508.00
2022-09-25T06:45:39.611Z,7588.00
2022-09-25T06:46:39.629Z,7648.00
2022-09-25T06:47:39.547Z,7700.00
2022-09-25T06:48:39.522Z,7792.00
2022-09-25T06:49:39.520Z,7872.00
2022-09-25T06:50:39.548Z,7968.00
2022-09-25T06:51:39.513Z,8092.00
2022-09-25T06:52:39.481Z,8212.00
2022-09-25T06:53:39.484Z,8316.00
2022-09-25T06:54:43.801Z,8436.00
2022-09-25T06:55:39.493Z,8556.00
2022-09-25T06:56:39.444Z,8660.00
2022-09-25T06:57:39.458Z,8816.00
2022-09-25T06:58:39.439Z,8972.00
2022-09-25T06:59:39.423Z,9128.00
2022-09-25T07:00:39.429Z,9312.00
2022-09-25T07:01:39.417Z,9492.00
2022-09-25T07:02:39.396Z,9680.00
2022-09-25T07:03:39.371Z,9828.00
2022-09-25T07:04:39.351Z,10052.00
2022-09-25T07:05:39.381Z,10224.00
2022-09-25T07:06:39.334Z,10380.00
2022-09-25T07:07:39.330Z,10600.00
2022-09-25T07:08:39.322Z,10772.00
2022-09-25T07:09:39.288Z,10912.00
2022-09-25T07:10:42.749Z,11052.00
2022-09-25T07:11:40.288Z,11140.00
2022-09-25T07:12:39.263Z,11324.00
2022-09-25T07:13:39.250Z,11456.00
2022-09-25T07:14:39.239Z,11700.00
2022-09-25T07:15:39.304Z,11892.00
2022-09-25T07:16:39.214Z,12168.00
2022-09-25T07:17:39.213Z,12480.00
2022-09-25T07:18:39.190Z,12724.00
2022-09-25T07:19:39.184Z,13180.00
2022-09-25T07:20:39.199Z,13520.00
2022-09-25T07:21:39.158Z,13848.00
2022-09-25T07:22:39.147Z,14136.00
2022-09-25T07:23:39.138Z,14344.00
2022-09-25T07:24:39.117Z,14628.00
2022-09-25T07:25:39.142Z,14776.00
2022-09-25T07:26:43.082Z,14952.00
2022-09-25T07:27:39.092Z,15084.00
2022-09-25T07:28:39.087Z,15352.00
2022-09-25T07:29:39.073Z,15512.00
2022-09-25T07:30:39.170Z,15680.00
2022-09-25T07:31:39.100Z,15856.00
2022-09-25T07:32:39.034Z,16032.00
2022-09-25T07:33:39.029Z,16280.00
2022-09-25T07:34:39.016Z,16540.00
2022-09-25T07:35:39.049Z,16924.00
2022-09-25T07:36:38.981Z,17176.00
2022-09-25T07:37:38.973Z,17632.00
2022-09-25T07:38:38.964Z,17824.00
2022-09-25T07:39:38.980Z,17952.00
2022-09-25T07:40:39.034Z,18048.00
2022-09-25T07:41:38.941Z,18240.00
2022-09-25T07:42:38.944Z,18144.00
2022-09-25T07:43:38.914Z,18048.00
2022-09-25T07:44:39.528Z,18496.00
2022-09-25T07:45:38.924Z,19040.00
2022-09-25T07:46:38.892Z,19680.00
2022-09-25T07:47:38.870Z,20352.00
2022-09-25T07:48:38.856Z,21472.00
2022-09-25T07:49:38.842Z,21824.00
2022-09-25T07:50:38.863Z,22048.00
2022-09-25T07:51:38.830Z,21824.00
2022-09-25T07:52:38.800Z,22432.00
2022-09-25T07:53:38.797Z,22496.00
2022-09-25T07:54:38.793Z,22176.00
2022-09-25T07:55:38.813Z,22400.00
2022-09-25T07:56:38.760Z,22528.00
2022-09-25T07:57:38.758Z,22752.00
2022-09-25T07:58:38.739Z,23392.00
2022-09-25T07:59:38.727Z,24192.00
2022-09-25T08:00:38.765Z,23104.00
2022-09-25T08:01:43.984Z,23040.00
2022-09-25T08:02:39.789Z,28192.00
2022-09-25T08:03:38.693Z,21504.00
2022-09-25T08:04:38.668Z,20928.00
2022-09-25T08:05:38.703Z,20064.00
2022-09-25T08:06:38.639Z,19488.00
2022-09-25T08:07:38.644Z,18880.00
2022-09-25T08:08:38.621Z,18432.00
2022-09-25T08:09:38.618Z,18208.00
2022-09-25T08:10:38.643Z,17920.00
2022-09-25T08:11:38.605Z,17604.00
2022-09-25T08:12:38.576Z,17436.00
2022-09-25T08:13:38.575Z,17920.00
2022-09-25T08:14:38.556Z,22528.00
2022-09-25T08:15:38.588Z,19616.00
2022-09-25T08:16:38.519Z,34080.00
2022-09-25T08:17:38.533Z,23648.00
2022-09-25T08:18:38.526Z,21312.00
2022-09-25T08:19:38.505Z,21056.00
2022-09-25T08:20:38.553Z,18624.00
2022-09-25T08:21:38.485Z,17572.00
2022-09-25T08:22:38.474Z,19264.00
2022-09-25T08:23:38.450Z,18304.00
2022-09-25T08:24:38.439Z,20576.00
2022-09-25T08:25:38.476Z,19136.00
2022-09-25T08:26:38.422Z,19456.00
2022-09-25T08:27:38.401Z,26528.00
2022-09-25T08:28:38.402Z,22752.00
2022-09-25T08:29:38.384Z,29824.00
2022-09-25T08:30:38.503Z,37504.00
2022-09-25T08:31:38.398Z,41824.00
2022-09-25T08:32:38.356Z,44320.00
2022-09-25T08:33:38.355Z,46336.00
2022-09-25T08:34:42.076Z,45728.00
2022-09-25T08:35:38.374Z,43040.00
2022-09-25T08:36:38.333Z,43392.00
2022-09-25T08:37:38.300Z,43680.00
2022-09-25T08:38:38.282Z,43232.00
2022-09-25T08:39:38.276Z,43744.00
2022-09-25T08:40:39.926Z,43200.00
2022-09-25T08:41:38.253Z,44832.00
2022-09-25T08:42:38.243Z,46912.00
2022-09-25T08:43:38.248Z,47488.00
2022-09-25T08:44:38.209Z,50144.00
2022-09-25T08:45:38.247Z,50144.00
2022-09-25T08:46:38.227Z,52480.00
2022-09-25T08:47:38.186Z,53664.00
2022-09-25T08:48:38.163Z,51584.00
2022-09-25T08:49:38.165Z,49856.00
2022-09-25T08:50:38.190Z,50624.00
2022-09-25T08:51:38.134Z,47328.00
2022-09-25T08:52:38.121Z,45280.00
2022-09-25T08:53:38.122Z,44864.00
2022-09-25T08:54:40.922Z,44000.00
2022-09-25T08:55:39.131Z,43264.00
2022-09-25T08:56:38.092Z,42112.00
2022-09-25T08:57:38.090Z,42208.00
2022-09-25T08:58:38.073Z,41536.00
2022-09-25T08:59:38.063Z,41184.00
2022-09-25T09:00:38.073Z,42016.00
2022-09-25T09:01:38.102Z,43776.00
2022-09-25T09:02:38.046Z,45856.00
2022-09-25T09:03:38.003Z,47328.00
2022-09-25T09:04:38.030Z,49248.00
2022-09-25T09:05:38.024Z,54592.00
2022-09-25T09:06:37.972Z,60096.00
2022-09-25T09:07:37.968Z,62048.00
2022-09-25T09:08:37.947Z,62784.00
2022-09-25T09:09:37.943Z,64896.00
2022-09-25T09:10:37.958Z,64064.00
2022-09-25T09:11:37.926Z,64480.00
2022-09-25T09:12:37.916Z,64224.00
2022-09-25T09:13:37.905Z,62944.00
2022-09-25T09:14:37.884Z,61600.00
2022-09-25T09:15:37.981Z,62880.00
2022-09-25T09:16:37.870Z,68704.00
2022-09-25T09:17:37.856Z,70144.00
2022-09-25T09:18:37.826Z,66816.00
2022-09-25T09:19:37.833Z,67360.00
2022-09-25T09:20:37.859Z,74496.00
2022-09-25T09:21:37.813Z,78624.00
2022-09-25T09:22:37.822Z,78368.00
2022-09-25T09:23:37.783Z,76928.00
2022-09-25T09:24:37.758Z,78912.00
2022-09-25T09:25:37.790Z,83968.00
2022-09-25T09:26:37.753Z,84800.00
2022-09-25T09:27:37.754Z,72224.00
2022-09-25T09:28:37.729Z,76128.00
2022-09-25T09:29:37.725Z,91584.00
2022-09-25T09:30:37.810Z,95648.00
2022-09-25T09:31:37.695Z,95552.00
2022-09-25T09:32:37.691Z,93568.00
2022-09-25T09:33:37.672Z,89984.00
2022-09-25T09:35:01.067Z,82080.00
2022-09-25T09:35:38.654Z,85344.00
2022-09-25T09:36:37.644Z,86400.00
2022-09-25T09:37:37.644Z,84032.00
2022-09-25T09:38:37.601Z,82688.00
2022-09-25T09:39:37.654Z,82656.00
2022-09-25T09:40:37.651Z,79040.00
2022-09-25T09:41:37.594Z,79424.00
2022-09-25T09:42:37.570Z,81088.00
2022-09-25T09:43:37.565Z,84384.00
2022-09-25T09:44:37.583Z,85280.00
2022-09-25T09:45:37.538Z,87040.00
2022-09-25T09:46:37.550Z,88928.00
2022-09-25T09:47:37.519Z,97216.00
2022-09-25T09:48:37.518Z,100000.00
2022-09-25T09:49:37.578Z,98688.00
2022-09-25T09:50:42.436Z,114432.00
2022-09-25T09:51:38.490Z,100032.00
2022-09-25T09:52:37.459Z,92672.00
2022-09-25T09:53:37.458Z,91968.00
2022-09-25T09:54:37.443Z,97920.00
2022-09-25T09:55:37.462Z,93632.00
2022-09-25T09:56:37.409Z,87744.00
2022-09-25T09:57:37.404Z,75200.00
2022-09-25T09:58:37.384Z,61632.00
2022-09-25T09:59:37.421Z,50400.00
2022-09-25T10:00:37.368Z,44000.00
2022-09-25T10:01:41.372Z,43584.00
2022-09-25T10:02:37.443Z,36000.00
2022-09-25T10:03:37.346Z,32896.00
2022-09-25T10:04:37.358Z,34624.00
2022-09-25T10:05:37.318Z,36800.00
2022-09-25T10:06:37.322Z,39744.00
2022-09-25T10:07:37.299Z,40320.00
2022-09-25T10:08:37.286Z,39744.00
2022-09-25T10:09:37.325Z,38912.00
2022-09-25T10:10:37.277Z,38400.00
2022-09-25T10:11:37.274Z,37824.00
2022-09-25T10:12:37.258Z,37728.00
2022-09-25T10:13:37.245Z,37792.00
2022-09-25T10:14:37.226Z,33792.00
2022-09-25T10:15:37.329Z,34656.00
2022-09-25T10:16:37.201Z,36832.00
2022-09-25T10:17:37.191Z,38496.00
2022-09-25T10:18:37.178Z,38784.00
2022-09-25T10:19:37.238Z,38080.00
2022-09-25T10:20:37.161Z,38496.00
2022-09-25T10:21:37.156Z,38368.00
2022-09-25T10:22:37.144Z,38496.00
2022-09-25T10:23:37.121Z,38336.00
2022-09-25T10:24:37.141Z,38752.00
2022-09-25T10:25:37.147Z,38048.00
2022-09-25T10:26:37.111Z,38272.00
2022-09-25T10:27:37.093Z,38272.00
2022-09-25T10:28:37.076Z,38400.00
2022-09-25T10:29:37.082Z,38528.00
2022-09-25T10:30:37.154Z,38688.00
2022-09-25T10:31:37.034Z,38400.00
2022-09-25T10:32:37.029Z,38656.00
2022-09-25T10:33:37.026Z,38016.00
2022-09-25T10:34:37.000Z,40064.00
2022-09-25T10:35:37.046Z,33056.00
2022-09-25T10:36:36.992Z,36960.00
2022-09-25T10:37:36.974Z,35104.00
2022-09-25T10:38:36.961Z,31008.00
2022-09-25T10:39:44.748Z,22496.00
2022-09-25T10:40:38.121Z,26816.00
2022-09-25T10:41:36.940Z,31808.00
2022-09-25T10:42:36.928Z,33184.00
2022-09-25T10:43:36.918Z,28256.00
2022-09-25T10:44:36.920Z,26688.00
2022-09-25T10:45:36.920Z,31872.00
2022-09-25T10:46:36.937Z,24800.00
2022-09-25T10:47:36.861Z,30944.00
2022-09-25T10:48:36.862Z,31392.00
2022-09-25T10:49:36.844Z,33184.00
2022-09-25T10:50:36.912Z,53376.00
2022-09-25T10:51:36.837Z,29856.00
2022-09-25T10:52:36.822Z,32672.00
2022-09-25T10:53:36.811Z,27040.00
2022-09-25T10:54:40.523Z,46976.00
2022-09-25T10:55:37.817Z,25728.00
2022-09-25T10:56:36.790Z,42336.00
2022-09-25T10:57:36.780Z,39104.00
2022-09-25T10:58:36.763Z,29056.00
2022-09-25T10:59:36.763Z,31456.00
2022-09-25T11:00:36.772Z,31136.00
2022-09-25T11:01:36.913Z,36096.00
2022-09-25T11:02:36.791Z,42432.00
2022-09-25T11:03:36.692Z,40672.00
2022-09-25T11:04:36.675Z,40416.00
2022-09-25T11:05:36.709Z,38528.00
2022-09-25T11:06:36.674Z,38880.00
2022-09-25T11:07:36.657Z,37888.00
2022-09-25T11:08:36.660Z,37600.00
2022-09-25T11:09:36.643Z,37216.00
2022-09-25T11:10:36.684Z,36992.00
2022-09-25T11:11:36.612Z,36672.00
2022-09-25T11:12:36.600Z,36672.00
2022-09-25T11:13:36.592Z,36736.00
2022-09-25T11:14:36.612Z,36704.00
2022-09-25T11:15:36.590Z,36576.00
2022-09-25T11:16:36.619Z,36576.00
2022-09-25T11:17:36.571Z,35968.00
2022-09-25T11:18:36.543Z,36544.00
2022-09-25T11:19:36.531Z,36832.00
2022-09-25T11:20:36.558Z,37024.00
2022-09-25T11:21:36.510Z,36768.00
2022-09-25T11:22:36.498Z,36608.00
2022-09-25T11:23:36.498Z,36320.00
2022-09-25T11:24:36.485Z,36352.00
2022-09-25T11:25:36.498Z,36480.00
2022-09-25T11:26:36.460Z,36576.00
2022-09-25T11:27:36.439Z,36352.00
2022-09-25T11:28:36.448Z,36128.00
2022-09-25T11:29:36.418Z,36032.00
2022-09-25T11:30:36.558Z,34624.00
2022-09-25T11:31:36.398Z,26624.00
2022-09-25T11:32:36.403Z,25312.00
2022-09-25T11:33:36.363Z,34912.00
2022-09-25T11:34:36.352Z,35296.00
2022-09-25T11:35:36.378Z,35520.00
2022-09-25T11:36:36.341Z,35232.00
2022-09-25T11:37:36.353Z,34912.00
2022-09-25T11:38:36.338Z,34688.00
2022-09-25T11:39:36.316Z,34720.00
2022-09-25T11:40:36.346Z,34528.00
2022-09-25T11:41:36.305Z,33952.00
2022-09-25T11:42:36.274Z,34016.00
2022-09-25T11:43:36.282Z,34112.00
2022-09-25T11:44:36.270Z,33984.00
2022-09-25T11:45:36.278Z,34048.00
2022-09-25T11:46:36.252Z,33984.00
2022-09-25T11:47:36.257Z,34400.00
2022-09-25T11:48:36.221Z,34272.00
2022-09-25T11:49:36.232Z,34112.00
2022-09-25T11:50:36.246Z,34016.00
2022-09-25T11:51:36.193Z,33888.00
2022-09-25T11:52:36.183Z,33792.00
2022-09-25T11:53:36.169Z,34208.00
2022-09-25T11:54:36.740Z,33984.00
2022-09-25T11:55:36.155Z,33952.00
2022-09-25T11:56:36.227Z,34112.00
2022-09-25T11:57:36.156Z,34176.00
2022-09-25T11:58:36.139Z,34272.00
2022-09-25T11:59:36.106Z,34144.00
2022-09-25T12:00:36.150Z,34464.00
2022-09-25T12:01:36.171Z,34688.00
2022-09-25T12:02:36.116Z,34912.00
2022-09-25T12:03:36.056Z,34464.00
2022-09-25T12:04:41.267Z,33824.00
2022-09-25T12:05:37.035Z,34176.00
2022-09-25T12:06:36.011Z,34912.00
2022-09-25T12:07:36.000Z,37184.00
2022-09-25T12:08:36.018Z,37344.00
2022-09-25T12:09:36.055Z,36224.00
2022-09-25T12:10:36.019Z,35776.00
2022-09-25T12:11:35.976Z,38272.00
2022-09-25T12:12:35.973Z,39200.00
2022-09-25T12:13:35.954Z,37952.00
2022-09-25T12:14:35.985Z,38400.00
2022-09-25T12:15:35.924Z,38784.00
2022-09-25T12:16:36.059Z,38400.00
2022-09-25T12:17:35.903Z,37920.00
2022-09-25T12:18:35.897Z,37632.00
2022-09-25T12:19:35.941Z,37248.00
2022-09-25T12:20:35.903Z,36992.00
2022-09-25T12:21:35.879Z,36832.00
2022-09-25T12:22:35.863Z,37280.00